createdAt,value
2023-05-06T00:00:53.456Z,97.13
2023-05-06T00:01:56.234Z,98.32
2023-05-06T00:03:00.191Z,98.02
2023-05-06T00:04:03.412Z,97.80
2023-05-06T00:05:06.093Z,96.98
2023-05-06T00:06:08.876Z,96.74
2023-05-06T00:07:10.713Z,97.40
2023-05-06T00:08:13.658Z,97.01
2023-05-06T00:09:15.853Z,100.00
2023-05-06T00:10:18.643Z,100.00
2023-05-06T00:11:21.055Z,100.00
2023-05-06T00:12:23.856Z,100.00
2023-05-06T00:13:25.668Z,100.00
2023-05-06T00:14:28.544Z,100.00
2023-05-06T00:15:32.136Z,99.95
2023-05-06T00:16:36.624Z,99.42
2023-05-06T00:17:38.637Z,98.43
2023-05-06T00:18:42.051Z,99.55
2023-05-06T00:19:44.498Z,99.62
2023-05-06T00:20:47.237Z,100.00
2023-05-06T00:21:49.021Z,100.00
2023-05-06T00:22:51.749Z,100.00
2023-05-06T00:23:53.481Z,100.00
2023-05-06T00:24:56.277Z,100.00
2023-05-06T00:25:58.064Z,100.00
2023-05-06T00:27:01.715Z,100.00
2023-05-06T00:28:03.785Z,100.00
2023-05-06T00:29:06.566Z,100.00
2023-05-06T00:30:09.820Z,100.00
2023-05-06T00:31:12.613Z,100.00
2023-05-06T00:32:15.795Z,100.00
2023-05-06T00:33:18.576Z,100.00
2023-05-06T00:34:20.447Z,99.70
2023-05-06T00:35:23.290Z,100.00
2023-05-06T00:36:25.123Z,100.00
2023-05-06T00:37:28.676Z,100.00
2023-05-06T00:38:30.722Z,100.00
2023-05-06T00:39:33.517Z,100.00
2023-05-06T00:40:35.631Z,100.00
2023-05-06T00:41:38.454Z,100.00
2023-05-06T00:42:40.297Z,99.96
2023-05-06T00:43:43.040Z,99.40
2023-05-06T00:44:44.840Z,100.00
2023-05-06T00:45:48.948Z,100.00
2023-05-06T00:46:51.045Z,100.00
2023-05-06T00:47:55.854Z,100.00
2023-05-06T00:48:57.710Z,100.00
2023-05-06T00:50:00.729Z,100.00
2023-05-06T00:51:02.640Z,100.00
2023-05-06T00:52:05.757Z,100.00
2023-05-06T00:53:09.384Z,100.00
2023-05-06T00:54:12.864Z,100.00
2023-05-06T00:55:15.192Z,100.00
2023-05-06T00:56:20.658Z,100.00
2023-05-06T00:57:23.453Z,99.28
2023-05-06T00:58:26.280Z,100.00
2023-05-06T00:59:28.595Z,100.00
2023-05-06T01:00:31.402Z,100.00
2023-05-06T01:01:33.761Z,100.00
2023-05-06T01:02:46.413Z,100.00
2023-05-06T01:03:52.057Z,100.00
2023-05-06T01:04:56.038Z,100.00
2023-05-06T01:06:07.838Z,100.00
2023-05-06T01:07:21.792Z,100.00
2023-05-06T01:08:28.743Z,100.00
2023-05-06T01:09:40.170Z,100.00
2023-05-06T01:10:49.772Z,100.00
2023-05-06T01:11:56.155Z,100.00
2023-05-06T01:13:05.715Z,100.00
2023-05-06T01:14:16.873Z,100.00
2023-05-06T01:15:25.965Z,100.00
2023-05-06T01:16:30.804Z,100.00
2023-05-06T01:17:35.549Z,100.00
2023-05-06T01:18:39.876Z,100.00
2023-05-06T01:19:46.576Z,100.00
2023-05-06T01:20:51.759Z,100.00
2023-05-06T01:21:54.787Z,100.00
2023-05-06T01:22:57.612Z,100.00
2023-05-06T01:24:00.951Z,100.00
2023-05-06T01:25:03.878Z,100.00
2023-05-06T01:26:05.752Z,100.00
2023-05-06T01:27:09.612Z,100.00
2023-05-06T01:28:13.091Z,100.00
2023-05-06T01:29:15.938Z,100.00
2023-05-06T01:30:19.601Z,100.00
2023-05-06T01:31:26.941Z,100.00
2023-05-06T01:32:40.783Z,100.00
2023-05-06T01:33:51.788Z,100.00
2023-05-06T01:35:01.632Z,100.00
2023-05-06T01:36:13.905Z,100.00
2023-05-06T01:37:21.969Z,100.00
2023-05-06T01:38:35.732Z,100.00
2023-05-06T01:39:41.654Z,100.00
2023-05-06T01:40:48.793Z,100.00
2023-05-06T01:41:51.931Z,100.00
2023-05-06T01:42:56.150Z,100.00
2023-05-06T01:44:00.288Z,100.00
2023-05-06T01:45:05.328Z,100.00
2023-05-06T01:46:11.519Z,100.00
2023-05-06T01:47:15.310Z,100.00
2023-05-06T01:48:17.298Z,100.00
2023-05-06T01:49:21.268Z,100.00
2023-05-06T01:50:23.186Z,100.00
2023-05-06T01:51:26.143Z,100.00
2023-05-06T01:52:28.004Z,100.00
2023-05-06T01:53:30.780Z,100.00
2023-05-06T01:54:32.597Z,100.00
2023-05-06T01:55:36.724Z,100.00
2023-05-06T01:56:38.652Z,100.00
2023-05-06T01:57:41.501Z,100.00
2023-05-06T01:58:43.470Z,100.00
2023-05-06T01:59:46.214Z,100.00
2023-05-06T02:00:48.089Z,100.00
2023-05-06T02:01:51.291Z,100.00
2023-05-06T02:02:53.385Z,100.00
2023-05-06T02:03:56.436Z,100.00
2023-05-06T02:04:58.536Z,100.00
2023-05-06T02:06:01.354Z,100.00
2023-05-06T02:07:03.210Z,100.00
2023-05-06T02:08:06.091Z,100.00
2023-05-06T02:09:07.923Z,99.79
2023-05-06T02:10:11.173Z,99.87
2023-05-06T02:11:14.608Z,99.85
2023-05-06T02:12:17.301Z,99.97
2023-05-06T02:13:19.549Z,99.42
2023-05-06T02:14:22.410Z,98.62
2023-05-06T02:15:24.217Z,98.84
2023-05-06T02:16:28.666Z,99.93
2023-05-06T02:17:30.706Z,99.80
2023-05-06T02:18:33.786Z,99.98
2023-05-06T02:19:35.845Z,99.05
2023-05-06T02:20:38.744Z,98.29
2023-05-06T02:21:40.559Z,97.66
2023-05-06T02:22:43.311Z,97.76
2023-05-06T02:23:45.237Z,97.43
2023-05-06T02:24:47.970Z,97.89
2023-05-06T02:25:50.246Z,97.45
2023-05-06T02:26:54.369Z,98.17
2023-05-06T02:27:56.169Z,98.48
2023-05-06T02:28:58.957Z,99.49
2023-05-06T02:30:01.040Z,98.49
2023-05-06T02:31:04.064Z,98.76
2023-05-06T02:32:06.977Z,98.49
2023-05-06T02:33:09.834Z,99.29
2023-05-06T02:34:11.652Z,99.55
2023-05-06T02:35:14.452Z,98.82
2023-05-06T02:36:16.332Z,100.00
2023-05-06T02:37:19.106Z,100.00
2023-05-06T02:38:21.325Z,100.00
2023-05-06T02:39:24.418Z,100.00
2023-05-06T02:40:26.803Z,99.70
2023-05-06T02:41:29.544Z,99.42
2023-05-06T02:42:34.031Z,99.44
2023-05-06T02:43:36.823Z,98.69
2023-05-06T02:44:38.643Z,97.99
2023-05-06T02:45:41.440Z,98.13
2023-05-06T02:46:43.679Z,98.08
2023-05-06T02:47:46.725Z,97.92
2023-05-06T02:48:48.571Z,97.87
2023-05-06T02:49:51.397Z,98.44
2023-05-06T02:50:53.603Z,100.00
2023-05-06T02:51:57.300Z,100.00
2023-05-06T02:52:59.156Z,100.00
2023-05-06T02:54:01.899Z,100.00
2023-05-06T02:55:04.162Z,100.00
2023-05-06T02:56:07.297Z,99.46
2023-05-06T02:57:09.239Z,99.12
2023-05-06T02:58:13.342Z,98.92
2023-05-06T02:59:15.140Z,99.88
2023-05-06T03:00:18.529Z,100.00
2023-05-06T03:01:20.506Z,100.00
2023-05-06T03:02:23.361Z,100.00
2023-05-06T03:03:25.422Z,100.00
2023-05-06T03:04:28.265Z,99.61
2023-05-06T03:05:30.060Z,100.00
2023-05-06T03:06:32.869Z,100.00
2023-05-06T03:07:35.907Z,99.66
2023-05-06T03:08:38.663Z,99.56
2023-05-06T03:09:40.651Z,100.00
2023-05-06T03:10:43.713Z,100.00
2023-05-06T03:11:46.130Z,100.00
2023-05-06T03:12:48.940Z,100.00
2023-05-06T03:13:52.116Z,100.00
2023-05-06T03:14:55.087Z,100.00
2023-05-06T03:15:57.064Z,100.00
2023-05-06T03:16:59.916Z,98.91
2023-05-06T03:18:02.035Z,100.00
2023-05-06T03:19:05.147Z,100.00
2023-05-06T03:20:09.965Z,99.45
2023-05-06T03:21:13.022Z,98.58
2023-05-06T03:22:15.042Z,98.73
2023-05-06T03:23:17.810Z,98.19
2023-05-06T03:24:19.700Z,97.92
2023-05-06T03:25:22.494Z,99.95
2023-05-06T03:26:24.581Z,100.00
2023-05-06T03:27:27.347Z,100.00
2023-05-06T03:28:29.116Z,100.00
2023-05-06T03:29:33.215Z,100.00
2023-05-06T03:30:35.084Z,100.00
2023-05-06T03:31:38.189Z,100.00
2023-05-06T03:32:40.127Z,100.00
2023-05-06T03:33:42.969Z,100.00
2023-05-06T03:34:45.032Z,100.00
2023-05-06T03:35:47.774Z,100.00
2023-05-06T03:36:50.537Z,100.00
2023-05-06T03:37:52.376Z,100.00
2023-05-06T03:38:55.212Z,100.00
2023-05-06T03:39:57.120Z,100.00
2023-05-06T03:41:00.031Z,100.00
2023-05-06T03:42:02.312Z,100.00
2023-05-06T03:43:05.279Z,100.00
2023-05-06T03:44:07.498Z,100.00
2023-05-06T03:45:12.563Z,100.00
2023-05-06T03:46:14.499Z,100.00
2023-05-06T03:47:17.394Z,100.00
2023-05-06T03:48:25.757Z,100.00
2023-05-06T03:49:28.508Z,100.00
2023-05-06T03:50:30.900Z,100.00
2023-05-06T03:51:33.833Z,100.00
2023-05-06T03:52:35.871Z,100.00
2023-05-06T03:53:39.175Z,100.00
2023-05-06T03:54:41.097Z,100.00
2023-05-06T03:55:43.897Z,100.00
2023-05-06T03:56:45.854Z,100.00
2023-05-06T03:57:48.647Z,100.00
2023-05-06T03:58:50.433Z,100.00
2023-05-06T03:59:53.296Z,100.00
2023-05-06T04:00:56.559Z,100.00
2023-05-06T04:01:59.537Z,100.00
2023-05-06T04:03:01.440Z,100.00
2023-05-06T04:04:04.428Z,100.00
2023-05-06T04:05:08.168Z,100.00
2023-05-06T04:06:11.395Z,100.00
2023-05-06T04:07:13.248Z,100.00
2023-05-06T04:08:17.158Z,100.00
2023-05-06T04:09:19.078Z,100.00
2023-05-06T04:10:22.426Z,100.00
2023-05-06T04:11:24.585Z,100.00
2023-05-06T04:12:27.398Z,100.00
2023-05-06T04:13:29.242Z,100.00
2023-05-06T04:14:32.428Z,100.00
2023-05-06T04:15:35.184Z,100.00
2023-05-06T04:16:39.332Z,100.00
2023-05-06T04:17:41.382Z,100.00
2023-05-06T04:18:46.113Z,100.00
2023-05-06T04:19:47.986Z,100.00
2023-05-06T04:20:50.786Z,100.00
2023-05-06T04:21:52.643Z,100.00
2023-05-06T04:22:55.438Z,100.00
2023-05-06T04:23:57.268Z,100.00
2023-05-06T04:25:00.761Z,100.00
2023-05-06T04:26:02.735Z,100.00
2023-05-06T04:27:05.809Z,100.00
2023-05-06T04:28:07.776Z,100.00
2023-05-06T04:29:10.878Z,100.00
2023-05-06T04:30:13.722Z,100.00
2023-05-06T04:31:16.559Z,100.00
2023-05-06T04:32:20.895Z,100.00
2023-05-06T04:33:25.586Z,100.00
2023-05-06T04:34:28.907Z,100.00
2023-05-06T04:35:31.844Z,100.00
2023-05-06T04:36:34.281Z,100.00
2023-05-06T04:37:37.135Z,100.00
2023-05-06T04:38:39.073Z,100.00
2023-05-06T04:39:42.625Z,100.00
2023-05-06T04:40:44.540Z,100.00
2023-05-06T04:41:47.922Z,100.00
2023-05-06T04:42:50.799Z,100.00
2023-05-06T04:43:52.650Z,100.00
2023-05-06T04:44:55.921Z,100.00
2023-05-06T04:45:58.043Z,100.00
2023-05-06T04:47:00.865Z,100.00
2023-05-06T04:48:04.422Z,100.00
2023-05-06T04:49:07.378Z,98.74
2023-05-06T04:50:09.813Z,99.10
2023-05-06T04:51:12.583Z,98.69
2023-05-06T04:52:14.399Z,98.93
2023-05-06T04:53:17.828Z,98.18
2023-05-06T04:54:19.654Z,99.54
2023-05-06T04:55:22.462Z,98.99
2023-05-06T04:56:24.326Z,99.07
2023-05-06T04:57:27.170Z,98.46
2023-05-06T04:58:28.928Z,98.77
2023-05-06T04:59:31.784Z,100.00
2023-05-06T05:00:33.862Z,100.00
2023-05-06T05:01:36.655Z,100.00
2023-05-06T05:02:38.575Z,100.00
2023-05-06T05:03:42.761Z,100.00
2023-05-06T05:04:44.601Z,100.00
2023-05-06T05:05:47.362Z,100.00
2023-05-06T05:06:49.167Z,100.00
2023-05-06T05:07:51.924Z,99.77
2023-05-06T05:08:55.510Z,100.00
2023-05-06T05:09:57.501Z,99.76
2023-05-06T05:11:00.382Z,100.00
2023-05-06T05:12:02.723Z,99.28
2023-05-06T05:13:05.534Z,99.82
2023-05-06T05:14:07.379Z,99.94
2023-05-06T05:15:11.191Z,98.55
2023-05-06T05:16:13.264Z,99.01
2023-05-06T05:17:16.226Z,99.61
2023-05-06T05:18:18.394Z,98.82
2023-05-06T05:19:22.621Z,99.25
2023-05-06T05:20:24.479Z,99.95
2023-05-06T05:21:27.690Z,99.77
2023-05-06T05:22:29.526Z,98.88
2023-05-06T05:23:32.380Z,98.31
2023-05-06T05:24:34.241Z,98.37
2023-05-06T05:25:37.055Z,98.32
2023-05-06T05:26:38.910Z,97.47
2023-05-06T05:27:42.275Z,96.53
2023-05-06T05:28:44.274Z,97.72
2023-05-06T05:29:47.035Z,96.61
2023-05-06T05:30:49.029Z,96.05
2023-05-06T05:31:51.869Z,96.18
2023-05-06T05:32:53.774Z,94.85
2023-05-06T05:33:56.768Z,95.58
2023-05-06T05:34:59.971Z,95.45
2023-05-06T05:36:02.951Z,95.14
2023-05-06T05:37:04.917Z,95.08
2023-05-06T05:38:07.663Z,94.55
2023-05-06T05:39:09.838Z,94.38
2023-05-06T05:40:13.394Z,94.42
2023-05-06T05:41:17.305Z,94.35
2023-05-06T05:42:20.957Z,93.29
2023-05-06T05:43:25.913Z,92.57
2023-05-06T05:44:28.773Z,94.45
2023-05-06T05:45:31.698Z,93.92
2023-05-06T05:46:33.515Z,94.06
2023-05-06T05:47:36.375Z,94.06
2023-05-06T05:48:39.757Z,95.21
2023-05-06T05:49:42.871Z,95.50
2023-05-06T05:50:46.854Z,96.05
2023-05-06T05:51:49.632Z,96.68
2023-05-06T05:52:51.481Z,95.36
2023-05-06T05:53:54.332Z,95.33
2023-05-06T05:54:56.295Z,95.62
2023-05-06T05:55:59.059Z,95.44
2023-05-06T05:57:01.704Z,94.78
2023-05-06T05:58:04.558Z,92.66
2023-05-06T05:59:06.784Z,92.96
2023-05-06T06:00:12.262Z,91.83
2023-05-06T06:01:15.495Z,92.77
2023-05-06T06:02:18.327Z,92.46
2023-05-06T06:03:20.330Z,92.64
2023-05-06T06:04:23.230Z,93.46
2023-05-06T06:05:25.163Z,93.85
2023-05-06T06:06:29.238Z,93.20
2023-05-06T06:07:31.204Z,93.89
2023-05-06T06:08:34.133Z,95.41
2023-05-06T06:09:36.094Z,97.09
2023-05-06T06:10:38.919Z,98.30
2023-05-06T06:11:40.757Z,98.54
2023-05-06T06:12:44.679Z,96.64
2023-05-06T06:13:46.662Z,96.32
2023-05-06T06:14:50.064Z,97.22
2023-05-06T06:15:52.152Z,97.28
2023-05-06T06:16:54.997Z,95.67
2023-05-06T06:17:57.093Z,95.05
2023-05-06T06:18:59.980Z,95.50
2023-05-06T06:20:01.922Z,95.34
2023-05-06T06:21:04.855Z,94.64
2023-05-06T06:22:08.072Z,94.46
2023-05-06T06:23:11.228Z,94.04
2023-05-06T06:24:13.336Z,92.40
2023-05-06T06:25:16.558Z,92.21
2023-05-06T06:26:19.295Z,92.41
2023-05-06T06:27:21.170Z,93.10
2023-05-06T06:28:24.202Z,93.64
2023-05-06T06:29:26.049Z,92.67
2023-05-06T06:30:28.983Z,92.14
2023-05-06T06:31:30.925Z,91.12
2023-05-06T06:32:33.695Z,91.28
2023-05-06T06:33:35.549Z,90.37
2023-05-06T06:34:38.299Z,91.38
2023-05-06T06:35:40.235Z,90.72
2023-05-06T06:36:45.162Z,90.96
2023-05-06T06:37:49.265Z,90.40
2023-05-06T06:38:51.106Z,90.87
2023-05-06T06:39:53.913Z,90.93
2023-05-06T06:40:55.760Z,90.45
2023-05-06T06:41:59.140Z,90.93
2023-05-06T06:43:01.258Z,91.47
2023-05-06T06:44:04.106Z,91.62
2023-05-06T06:45:08.345Z,91.04
2023-05-06T06:46:11.271Z,91.17
2023-05-06T06:47:13.294Z,90.92
2023-05-06T06:48:16.439Z,90.20
2023-05-06T06:49:18.246Z,89.14
2023-05-06T06:50:21.154Z,89.21
2023-05-06T06:51:23.407Z,89.86
2023-05-06T06:52:26.340Z,89.76
2023-05-06T06:53:29.482Z,89.78
2023-05-06T06:54:32.368Z,90.01
2023-05-06T06:55:34.287Z,89.11
2023-05-06T06:56:37.056Z,88.24
2023-05-06T06:57:39.738Z,88.54
2023-05-06T06:58:42.810Z,87.90
2023-05-06T06:59:44.765Z,87.96
2023-05-06T07:00:47.550Z,87.25
2023-05-06T07:01:49.411Z,87.83
2023-05-06T07:02:52.384Z,86.86
2023-05-06T07:03:54.230Z,87.13
2023-05-06T07:04:57.158Z,86.93
2023-05-06T07:05:59.909Z,85.27
2023-05-06T07:07:01.702Z,86.18
2023-05-06T07:08:04.582Z,86.06
2023-05-06T07:09:07.721Z,86.34
2023-05-06T07:10:11.175Z,85.80
2023-05-06T07:11:14.367Z,85.51
2023-05-06T07:12:17.150Z,83.91
2023-05-06T07:13:20.690Z,84.22
2023-05-06T07:14:23.506Z,84.69
2023-05-06T07:15:26.545Z,83.52
2023-05-06T07:16:28.337Z,83.23
2023-05-06T07:17:31.223Z,83.12
2023-05-06T07:18:33.086Z,82.54
2023-05-06T07:19:35.859Z,81.98
2023-05-06T07:20:37.640Z,82.61
2023-05-06T07:21:40.469Z,82.74
2023-05-06T07:22:43.842Z,82.37
2023-05-06T07:23:46.628Z,82.46
2023-05-06T07:24:49.724Z,82.30
2023-05-06T07:25:52.482Z,82.42
2023-05-06T07:26:54.316Z,82.23
2023-05-06T07:27:57.446Z,84.53
2023-05-06T07:28:59.249Z,84.48
2023-05-06T07:30:02.050Z,83.95
2023-05-06T07:31:04.059Z,83.30
2023-05-06T07:32:07.099Z,85.28
2023-05-06T07:33:08.928Z,85.70
2023-05-06T07:34:11.817Z,84.34
2023-05-06T07:35:13.797Z,84.67
2023-05-06T07:36:17.252Z,84.94
2023-05-06T07:37:19.057Z,85.42
2023-05-06T07:38:22.296Z,85.46
2023-05-06T07:39:24.103Z,84.71
2023-05-06T07:40:28.397Z,84.78
2023-05-06T07:41:30.240Z,83.95
2023-05-06T07:42:33.273Z,85.17
2023-05-06T07:43:35.268Z,84.58
2023-05-06T07:44:38.050Z,83.17
2023-05-06T07:45:39.943Z,84.45
2023-05-06T07:46:42.906Z,84.72
2023-05-06T07:47:44.906Z,85.65
2023-05-06T07:48:47.717Z,86.58
2023-05-06T07:49:49.523Z,86.63
2023-05-06T07:50:52.273Z,86.60
2023-05-06T07:51:54.140Z,86.05
2023-05-06T07:52:56.953Z,84.76
2023-05-06T07:53:58.792Z,83.47
2023-05-06T07:55:01.623Z,83.18
2023-05-06T07:56:05.352Z,81.72
2023-05-06T07:57:08.355Z,81.39
2023-05-06T07:58:10.191Z,81.05
2023-05-06T07:59:12.958Z,80.79
2023-05-06T08:00:15.261Z,81.19
2023-05-06T08:01:18.155Z,81.42
2023-05-06T08:02:20.033Z,82.00
2023-05-06T08:03:23.081Z,84.00
2023-05-06T08:04:25.142Z,84.62
2023-05-06T08:05:28.053Z,83.79
2023-05-06T08:06:32.199Z,84.08
2023-05-06T08:07:34.034Z,85.37
2023-05-06T08:08:36.821Z,85.01
2023-05-06T08:09:38.648Z,84.58
2023-05-06T08:10:41.505Z,83.92
2023-05-06T08:11:45.004Z,84.14
2023-05-06T08:12:47.915Z,84.04
2023-05-06T08:13:49.789Z,83.25
2023-05-06T08:14:52.628Z,82.91
2023-05-06T08:15:56.515Z,82.48
2023-05-06T08:16:59.557Z,84.01
2023-05-06T08:18:13.809Z,85.83
2023-05-06T08:19:24.238Z,85.78
2023-05-06T08:20:26.185Z,84.95
2023-05-06T08:21:29.028Z,86.43
2023-05-06T08:22:30.945Z,85.67
2023-05-06T08:23:33.756Z,84.84
2023-05-06T08:24:36.526Z,83.61
2023-05-06T08:25:38.371Z,83.42
2023-05-06T08:26:41.456Z,83.70
2023-05-06T08:27:45.261Z,83.11
2023-05-06T08:28:48.047Z,82.69
2023-05-06T08:29:51.341Z,81.90
2023-05-06T08:30:54.076Z,81.36
2023-05-06T08:31:56.088Z,80.60
2023-05-06T08:32:58.910Z,80.07
2023-05-06T08:34:00.880Z,80.14
2023-05-06T08:35:03.661Z,80.75
2023-05-06T08:36:05.845Z,83.41
2023-05-06T08:37:08.561Z,81.92
2023-05-06T08:38:10.465Z,80.68
2023-05-06T08:39:14.566Z,79.87
2023-05-06T08:40:19.287Z,79.59
2023-05-06T08:41:23.408Z,79.91
2023-05-06T08:42:26.012Z,78.80
2023-05-06T08:43:33.382Z,77.47
2023-05-06T08:44:35.294Z,79.24
2023-05-06T08:45:38.358Z,79.05
2023-05-06T08:46:40.284Z,79.28
2023-05-06T08:47:43.393Z,79.83
2023-05-06T08:48:45.764Z,80.26
2023-05-06T08:49:48.733Z,78.99
2023-05-06T08:50:51.064Z,80.33
2023-05-06T08:51:53.912Z,80.41
2023-05-06T08:52:55.779Z,78.96
2023-05-06T08:54:01.538Z,80.68
2023-05-06T08:55:05.204Z,80.41
2023-05-06T08:56:10.535Z,79.36
2023-05-06T08:57:13.812Z,78.61
2023-05-06T08:58:18.487Z,77.15
2023-05-06T08:59:24.887Z,74.96
2023-05-06T09:00:27.752Z,74.68
2023-05-06T09:01:29.798Z,73.49
2023-05-06T09:02:32.784Z,72.96
2023-05-06T09:03:34.808Z,72.61
2023-05-06T09:04:38.102Z,73.03
2023-05-06T09:05:40.031Z,71.39
2023-05-06T09:06:42.841Z,71.49
2023-05-06T09:07:44.624Z,71.31
2023-05-06T09:08:47.466Z,70.91
2023-05-06T09:09:49.724Z,70.33
2023-05-06T09:10:52.670Z,71.63
2023-05-06T09:11:57.245Z,71.63
2023-05-06T09:13:00.202Z,71.87
2023-05-06T09:14:10.630Z,71.95
2023-05-06T09:15:14.979Z,71.80
2023-05-06T09:16:29.563Z,70.52
2023-05-06T09:17:33.581Z,71.26
2023-05-06T09:18:37.137Z,70.07
2023-05-06T09:19:39.948Z,69.32
2023-05-06T09:20:43.132Z,69.86
2023-05-06T09:21:47.657Z,68.22
2023-05-06T09:22:49.560Z,68.35
2023-05-06T09:23:52.496Z,69.52
2023-05-06T09:24:56.923Z,69.22
2023-05-06T09:25:59.970Z,69.73
2023-05-06T09:27:03.150Z,71.35
2023-05-06T09:28:06.024Z,71.19
2023-05-06T09:29:09.214Z,70.74
2023-05-06T09:30:12.441Z,70.94
2023-05-06T09:31:17.087Z,71.14
2023-05-06T09:32:18.990Z,70.92
2023-05-06T09:33:22.705Z,71.38
2023-05-06T09:34:24.759Z,71.33
2023-05-06T09:35:30.044Z,71.12
2023-05-06T09:36:31.912Z,71.35
2023-05-06T09:37:34.733Z,70.48
2023-05-06T09:38:36.536Z,70.85
2023-05-06T09:39:39.355Z,70.67
2023-05-06T09:40:42.260Z,71.47
2023-05-06T09:41:44.497Z,70.27
2023-05-06T09:42:50.464Z,70.63
2023-05-06T09:43:53.169Z,70.11
2023-05-06T09:44:59.808Z,71.27
2023-05-06T09:46:03.400Z,70.98
2023-05-06T09:47:08.274Z,71.50
2023-05-06T09:48:11.162Z,73.02
2023-05-06T09:49:15.064Z,74.15
2023-05-06T09:50:18.544Z,73.53
2023-05-06T09:51:21.236Z,72.79
2023-05-06T09:52:24.188Z,71.23
2023-05-06T09:53:27.665Z,69.80
2023-05-06T09:54:31.326Z,68.70
2023-05-06T09:55:34.623Z,68.98
2023-05-06T09:56:37.302Z,67.01
2023-05-06T09:57:41.808Z,68.62
2023-05-06T09:58:45.710Z,66.51
2023-05-06T09:59:48.831Z,65.43
2023-05-06T10:00:52.958Z,66.13
2023-05-06T10:01:56.557Z,68.68
2023-05-06T10:03:01.976Z,68.27
2023-05-06T10:04:08.448Z,67.65
2023-05-06T10:05:14.253Z,67.41
2023-05-06T10:06:16.653Z,66.65
2023-05-06T10:07:23.587Z,66.87
2023-05-06T10:08:26.353Z,66.72
2023-05-06T10:09:31.072Z,67.38
2023-05-06T10:10:35.459Z,69.03
2023-05-06T10:11:38.624Z,66.54
2023-05-06T10:12:41.847Z,66.83
2023-05-06T10:13:45.489Z,67.07
2023-05-06T10:14:48.357Z,64.35
2023-05-06T10:15:50.642Z,66.99
2023-05-06T10:16:54.303Z,67.45
2023-05-06T10:17:56.390Z,67.58
2023-05-06T10:19:01.552Z,67.76
2023-05-06T10:20:05.067Z,67.04
2023-05-06T10:21:21.915Z,65.40
2023-05-06T10:22:34.151Z,66.73
2023-05-06T10:23:44.147Z,66.50
2023-05-06T10:24:52.353Z,66.79
2023-05-06T10:25:58.253Z,66.21
2023-05-06T10:27:03.157Z,66.14
2023-05-06T10:28:08.494Z,65.47
2023-05-06T10:29:16.376Z,64.97
2023-05-06T10:30:20.198Z,65.53
2023-05-06T10:31:22.248Z,63.16
2023-05-06T10:32:28.935Z,61.72
2023-05-06T10:33:32.304Z,62.09
2023-05-06T10:34:41.453Z,61.95
2023-05-06T10:35:50.911Z,59.67
2023-05-06T10:36:57.643Z,60.67
2023-05-06T10:38:03.972Z,60.72
2023-05-06T10:39:10.350Z,57.43
2023-05-06T10:40:12.491Z,55.75
2023-05-06T10:41:16.465Z,56.02
2023-05-06T10:42:18.344Z,58.56
2023-05-06T10:43:23.933Z,60.95
2023-05-06T10:45:00.715Z,60.36
2023-05-06T10:46:06.286Z,61.82
2023-05-06T10:47:09.114Z,59.84
2023-05-06T10:48:12.688Z,60.83
2023-05-06T10:49:18.321Z,58.39
2023-05-06T10:50:24.179Z,60.67
2023-05-06T10:51:28.457Z,59.60
2023-05-06T10:52:44.803Z,61.28
2023-05-06T10:54:03.807Z,61.43
2023-05-06T10:55:26.514Z,62.68
2023-05-06T10:56:30.121Z,63.33
2023-05-06T10:57:42.008Z,63.78
2023-05-06T10:58:47.429Z,65.62
2023-05-06T10:59:50.539Z,65.17
2023-05-06T11:00:54.470Z,60.60
2023-05-06T11:02:08.305Z,59.01
2023-05-06T11:03:13.456Z,59.18
2023-05-06T11:04:19.243Z,58.06
2023-05-06T11:05:23.880Z,58.50
2023-05-06T11:06:33.234Z,56.77
2023-05-06T11:07:36.729Z,57.20
2023-05-06T11:08:39.207Z,55.22
2023-05-06T11:09:59.295Z,54.08
2023-05-06T11:11:01.757Z,53.00
2023-05-06T11:12:05.845Z,52.35
2023-05-06T11:13:24.920Z,51.36
2023-05-06T11:14:30.073Z,48.29
2023-05-06T11:15:39.499Z,47.03
2023-05-06T11:16:49.321Z,49.36
2023-05-06T11:17:52.950Z,52.94
2023-05-06T11:18:56.434Z,55.19
2023-05-06T11:20:21.257Z,56.43
2023-05-06T11:21:45.027Z,55.54
2023-05-06T11:22:47.023Z,52.74
2023-05-06T11:24:12.940Z,53.66
2023-05-06T11:25:15.808Z,55.58
2023-05-06T11:26:18.163Z,56.47
2023-05-06T11:27:22.526Z,56.60
2023-05-06T11:28:25.422Z,56.23
2023-05-06T11:29:28.232Z,56.62
2023-05-06T11:30:30.242Z,56.04
2023-05-06T11:31:40.826Z,53.66
2023-05-06T11:32:44.438Z,52.91
2023-05-06T11:33:48.881Z,51.58
2023-05-06T11:34:55.619Z,53.04
2023-05-06T11:35:57.555Z,53.71
2023-05-06T11:37:03.649Z,53.36
2023-05-06T11:38:05.954Z,52.29
2023-05-06T11:39:09.364Z,51.12
2023-05-06T11:40:16.208Z,52.28
2023-05-06T11:41:19.208Z,52.77
2023-05-06T11:42:26.723Z,54.02
2023-05-06T11:43:28.490Z,56.00
2023-05-06T11:44:33.188Z,56.29
2023-05-06T11:45:40.989Z,56.63
2023-05-06T11:46:44.802Z,56.12
2023-05-06T11:47:46.802Z,57.12
2023-05-06T11:48:50.267Z,57.03
2023-05-06T11:49:55.698Z,55.67
2023-05-06T11:50:57.749Z,53.55
2023-05-06T11:52:01.889Z,55.36
2023-05-06T11:53:03.653Z,55.19
2023-05-06T11:54:08.677Z,54.83
2023-05-06T11:55:12.332Z,53.39
2023-05-06T11:56:14.339Z,53.53
2023-05-06T11:57:17.372Z,51.33
2023-05-06T11:58:21.426Z,51.02
2023-05-06T11:59:30.419Z,50.03
2023-05-06T12:00:32.239Z,50.16
2023-05-06T12:01:35.012Z,53.14
2023-05-06T12:02:37.796Z,52.15
2023-05-06T12:03:39.806Z,50.21
2023-05-06T12:04:44.054Z,50.04
2023-05-06T12:05:48.423Z,48.83
2023-05-06T12:06:51.746Z,49.05
2023-05-06T12:07:56.112Z,48.54
2023-05-06T12:08:58.023Z,46.25
2023-05-06T12:10:04.019Z,47.66
2023-05-06T12:11:08.047Z,46.43
2023-05-06T12:12:11.860Z,45.54
2023-05-06T12:13:15.568Z,45.79
2023-05-06T12:14:19.376Z,45.89
2023-05-06T12:15:21.271Z,46.53
2023-05-06T12:16:25.695Z,46.37
2023-05-06T12:17:28.927Z,45.59
2023-05-06T12:18:31.335Z,45.75
2023-05-06T12:19:34.400Z,45.67
2023-05-06T12:20:36.285Z,44.24
2023-05-06T12:21:39.825Z,44.47
2023-05-06T12:22:42.826Z,46.39
2023-05-06T12:23:54.074Z,46.20
2023-05-06T12:24:57.706Z,45.98
2023-05-06T12:26:01.496Z,45.04
2023-05-06T12:27:04.285Z,44.95
2023-05-06T12:28:15.358Z,44.37
2023-05-06T12:29:18.975Z,45.27
2023-05-06T12:30:29.266Z,44.49
2023-05-06T12:31:32.152Z,45.08
2023-05-06T12:32:35.141Z,44.30
2023-05-06T12:33:45.107Z,44.74
2023-05-06T12:34:48.064Z,45.29
2023-05-06T12:35:51.590Z,44.52
2023-05-06T12:36:54.332Z,45.22
2023-05-06T12:37:56.318Z,43.14
2023-05-06T12:39:01.693Z,43.15
2023-05-06T12:40:03.908Z,43.76
2023-05-06T12:41:07.632Z,44.11
2023-05-06T12:42:09.506Z,43.88
2023-05-06T12:43:13.084Z,45.18
2023-05-06T12:44:36.142Z,45.38
2023-05-06T12:45:39.873Z,44.10
2023-05-06T12:46:51.583Z,44.56
2023-05-06T12:47:53.994Z,44.72
2023-05-06T12:48:58.532Z,44.67
2023-05-06T12:50:01.682Z,44.54
2023-05-06T12:51:17.526Z,46.27
2023-05-06T12:52:21.717Z,45.56
2023-05-06T12:53:32.391Z,47.76
2023-05-06T12:54:36.471Z,46.31
2023-05-06T12:55:39.375Z,47.00
2023-05-06T12:56:42.263Z,47.85
2023-05-06T12:57:44.131Z,48.76
2023-05-06T12:58:57.046Z,47.84
2023-05-06T12:59:59.760Z,48.97
2023-05-06T13:01:01.626Z,50.93
2023-05-06T13:02:04.867Z,51.03
2023-05-06T13:03:06.827Z,51.05
2023-05-06T13:04:09.670Z,51.98
2023-05-06T13:05:11.685Z,50.44
2023-05-06T13:06:15.818Z,52.93
2023-05-06T13:07:18.577Z,51.65
2023-05-06T13:08:20.519Z,52.84
2023-05-06T13:09:23.665Z,54.24
2023-05-06T13:10:26.931Z,53.73
2023-05-06T13:11:29.698Z,52.97
2023-05-06T13:12:32.152Z,52.87
2023-05-06T13:13:35.143Z,51.22
2023-05-06T13:14:40.111Z,49.60
2023-05-06T13:15:42.505Z,50.54
2023-05-06T13:16:46.356Z,51.87
2023-05-06T13:17:49.202Z,51.93
2023-05-06T13:18:51.184Z,50.23
2023-05-06T13:19:54.420Z,49.02
2023-05-06T13:20:56.820Z,49.57
2023-05-06T13:22:00.530Z,49.79
2023-05-06T13:23:03.802Z,49.32
2023-05-06T13:24:07.952Z,50.28
2023-05-06T13:25:11.484Z,51.54
2023-05-06T13:26:17.304Z,51.17
2023-05-06T13:27:19.236Z,51.67
2023-05-06T13:28:21.963Z,51.06
2023-05-06T13:29:24.828Z,50.07
2023-05-06T13:30:27.895Z,49.83
2023-05-06T13:31:30.069Z,49.86
2023-05-06T13:32:33.853Z,47.98
2023-05-06T13:33:36.071Z,49.27